Time;durP1;ratioP1;P1;durP2;ratioP2;P2;SDS_P1;SDS_P2;PMS_P1;PMS_P2;Temp;Humidity;BMP_temperature;BMP_pressure;BME280_temperature;BME280_humidity;BME280_pressure;Samples;Min_cycle;Max_cycle;Signal;HPM_P1;HPM_P2
2023/09/06 00:01:07;;;;;;;1.40;0.95;;;;;;;19.26;60.02;100290.31;4473404;32;32974;-79
2023/09/06 00:03:37;;;;;;;1.98;0.93;;;;;;;19.41;59.46;100299.38;4473985;32;33976;-77
2023/09/06 00:06:06;;;;;;;1.48;1.02;;;;;;;19.13;60.18;100286.44;4475740;32;32424;-78
2023/09/06 00:08:35;;;;;;;1.52;1.05;;;;;;;19.30;59.63;100289.25;4479922;32;33614;-78
2023/09/06 00:11:06;;;;;;;1.70;1.00;;;;;;;19.14;60.22;100289.03;4475088;32;33888;-79
2023/09/06 00:13:37;;;;;;;1.12;1.02;;;;;;;19.01;60.55;100290.41;4472677;32;33549;-78
2023/09/06 00:16:07;;;;;;;2.15;1.42;;;;;;;19.08;60.54;100294.50;4471912;32;32371;-77
2023/09/06 00:18:37;;;;;;;2.05;1.00;;;;;;;19.16;60.70;100288.94;4475150;32;33767;-79
2023/09/06 00:21:06;;;;;;;3.80;1.00;;;;;;;19.32;59.87;100289.22;4468082;32;34755;-79
2023/09/06 00:23:35;;;;;;;2.92;1.45;;;;;;;19.29;59.54;100284.06;4464909;32;33618;-78
2023/09/06 00:26:04;;;;;;;2.45;1.37;;;;;;;19.30;59.52;100284.00;4466776;32;34116;-79
2023/09/06 00:28:33;;;;;;;2.50;1.23;;;;;;;19.38;59.25;100288.97;4463758;32;32385;-78
2023/09/06 00:31:03;;;;;;;2.33;1.12;;;;;;;19.29;59.33;100281.44;4472416;32;33054;-78
2023/09/06 00:33:34;;;;;;;2.10;1.35;;;;;;;19.15;59.81;100290.72;4467735;32;33808;-78
2023/09/06 00:36:04;;;;;;;2.40;1.30;;;;;;;19.25;59.48;100285.09;4465141;32;33541;-77
2023/09/06 00:38:33;;;;;;;1.65;0.93;;;;;;;19.05;60.10;100278.84;4465009;32;33680;-77
2023/09/06 00:41:01;;;;;;;1.25;0.90;;;;;;;19.22;59.32;100287.87;4467770;32;34716;-78
2023/09/06 00:43:30;;;;;;;2.28;1.15;;;;;;;19.01;60.15;100293.03;4464303;32;33693;-78
2023/09/06 00:46:03;;;;;;;1.45;0.88;;;;;;;19.11;59.71;100283.00;4473706;32;33792;-79
2023/09/06 00:48:35;;;;;;;1.80;1.12;;;;;;;19.14;59.85;100289.03;4468843;32;34192;-79
2023/09/06 00:51:05;;;;;;;1.80;1.23;;;;;;;19.09;60.01;100290.97;4477171;32;33333;-79
2023/09/06 00:53:35;;;;;;;1.70;0.95;;;;;;;18.84;60.72;100291.03;4471789;32;34505;-79
2023/09/06 00:56:04;;;;;;;2.40;1.40;;;;;;;18.90;60.46;100287.34;4477657;32;33021;-79
2023/09/06 00:58:33;;;;;;;1.60;0.95;;;;;;;18.98;60.15;100286.12;4477650;32;33359;-77
2023/09/06 01:01:04;;;;;;;2.65;1.35;;;;;;;18.94;60.02;100286.28;4477730;32;34370;-78
2023/09/06 01:03:34;;;;;;;1.35;0.98;;;;;;;18.90;60.32;100284.72;4482644;32;33436;-78
2023/09/06 01:06:05;;;;;;;2.08;1.52;;;;;;;18.93;60.27;100276.69;4471075;32;33233;-77
2023/09/06 01:08:38;;;;;;;1.12;0.80;;;;;;;18.62;61.24;100284.84;4461021;32;33614;-78
2023/09/06 01:11:20;;;;;;;2.22;1.58;;;;;;;18.69;60.63;100284.56;4466825;32;34901;-78
2023/09/06 01:13:50;;;;;;;2.45;1.10;;;;;;;18.63;61.23;100282.16;4460430;32;33062;-79
2023/09/06 01:16:22;;;;;;;2.17;1.30;;;;;;;18.76;60.75;100278.19;4464754;32;33037;-79
2023/09/06 01:18:53;;;;;;;1.95;1.02;;;;;;;18.84;60.51;100284.94;4462870;32;34304;-79
2023/09/06 01:21:26;;;;;;;1.45;0.90;;;;;;;18.73;60.66;100288.78;4472120;32;33681;-77
2023/09/06 01:23:56;;;;;;;2.90;1.30;;;;;;;18.67;61.13;100288.16;4461204;32;34691;-79
2023/09/06 01:26:26;;;;;;;2.03;1.17;;;;;;;18.65;61.16;100282.97;4471151;32;32579;-78
2023/09/06 01:28:56;;;;;;;1.92;1.33;;;;;;;18.54;61.48;100285.13;4470218;32;33936;-77
2023/09/06 01:31:24;;;;;;;1.23;0.90;;;;;;;18.61;61.42;100286.62;4463765;32;34743;-79
2023/09/06 01:33:55;;;;;;;2.53;1.85;;;;;;;18.57;61.58;100285.00;4467442;32;32314;-78
2023/09/06 01:36:24;;;;;;;1.92;1.30;;;;;;;18.32;62.14;100293.78;4474150;32;33553;-78
2023/09/06 01:38:53;;;;;;;1.67;1.40;;;;;;;18.58;61.08;100289.38;4466769;32;34344;-77
2023/09/06 01:41:23;;;;;;;1.92;1.15;;;;;;;18.59;60.77;100284.97;4462669;32;34501;-79
2023/09/06 01:43:54;;;;;;;1.87;0.98;;;;;;;18.52;61.11;100279.06;4472812;32;33463;-78
2023/09/06 01:46:24;;;;;;;1.60;1.12;;;;;;;18.54;61.10;100280.72;4461592;32;32403;-79
2023/09/06 01:48:59;;;;;;;3.30;1.77;;;;;;;18.62;60.97;100283.06;4467265;32;33846;-78
2023/09/06 01:51:28;;;;;;;1.20;1.02;;;;;;;18.54;61.19;100283.34;4481768;32;34810;-78
2023/09/06 01:53:57;;;;;;;1.00;0.73;;;;;;;18.62;60.89;100285.69;4472515;32;34568;-78
2023/09/06 01:56:27;;;;;;;2.72;1.30;;;;;;;18.55;61.12;100286.84;4465590;32;34054;-79
2023/09/06 01:58:56;;;;;;;2.00;1.15;;;;;;;18.54;61.16;100293.00;4471063;32;32802;-77
2023/09/06 02:01:25;;;;;;;2.08;1.33;;;;;;;18.40;61.48;100290.88;4470925;32;34020;-78
2023/09/06 02:03:55;;;;;;;1.33;0.80;;;;;;;18.28;61.95;100292.16;4472010;32;33668;-77
2023/09/06 02:06:24;;;;;;;1.67;1.00;;;;;;;18.43;61.34;100284.66;4470121;32;33001;-79
2023/09/06 02:08:53;;;;;;;2.00;1.05;;;;;;;18.24;62.11;100295.84;4466095;32;33149;-78
2023/09/06 02:11:22;;;;;;;1.55;1.00;;;;;;;18.29;61.77;100288.66;4464491;32;34530;-77
2023/09/06 02:13:52;;;;;;;1.02;0.90;;;;;;;18.35;61.78;100290.19;4476490;32;34160;-77
2023/09/06 02:16:22;;;;;;;1.90;1.30;;;;;;;18.20;62.19;100288.97;4462921;32;34110;-77
2023/09/06 02:18:51;;;;;;;1.65;1.08;;;;;;;18.29;61.53;100288.66;4475917;32;33662;-78
2023/09/06 02:21:20;;;;;;;1.42;1.00;;;;;;;18.33;61.20;100282.34;4469307;32;33967;-77
2023/09/06 02:23:49;;;;;;;1.75;1.15;;;;;;;18.34;60.95;100281.47;4465176;32;33643;-79
2023/09/06 02:26:18;;;;;;;2.50;1.30;;;;;;;18.30;61.22;100281.63;4463575;32;33725;-79
2023/09/06 02:28:48;;;;;;;1.60;1.17;;;;;;;18.31;61.31;100280.69;4475424;32;34454;-78
2023/09/06 02:31:18;;;;;;;2.85;1.40;;;;;;;18.25;61.29;100276.53;4465455;32;34538;-78
2023/09/06 02:33:47;;;;;;;1.05;0.90;;;;;;;18.14;61.76;100281.28;4482816;32;32929;-78
2023/09/06 02:36:16;;;;;;;1.00;0.90;;;;;;;18.31;61.20;100276.31;4474491;32;34165;-79
2023/09/06 02:38:47;;;;;;;1.98;1.20;;;;;;;18.31;61.02;100273.69;4479123;32;33650;-77
2023/09/06 02:41:16;;;;;;;2.72;1.25;;;;;;;18.29;61.22;100272.88;4462537;32;33789;-79
2023/09/06 02:43:44;;;;;;;3.37;1.02;;;;;;;18.17;61.42;100273.31;4463107;32;33691;-77
2023/09/06 02:46:15;;;;;;;2.25;0.90;;;;;;;18.21;61.29;100274.91;4478243;32;32850;-79
2023/09/06 02:48:46;;;;;;;1.85;0.90;;;;;;;18.10;61.55;100285.81;4465142;32;34636;-78
2023/09/06 02:51:16;;;;;;;1.25;0.85;;;;;;;17.98;62.12;100280.13;4475443;32;34790;-79
2023/09/06 02:53:45;;;;;;;1.55;0.93;;;;;;;18.08;61.77;100278.91;4468947;32;34271;-79
2023/09/06 02:56:14;;;;;;;1.30;0.90;;;;;;;18.15;61.50;100280.41;4470591;32;33344;-77
2023/09/06 02:58:45;;;;;;;1.80;0.93;;;;;;;18.20;61.18;100281.09;4476123;32;34260;-78
2023/09/06 03:01:19;;;;;;;1.85;1.10;;;;;;;18.16;61.27;100278.63;4467703;32;33799;-79
2023/09/06 03:03:51;;;;;;;1.73;1.08;;;;;;;18.20;61.17;100283.72;4472777;32;34405;-79
2023/09/06 03:06:32;;;;;;;1.35;0.95;;;;;;;18.12;61.31;100278.75;4474067;32;33861;-79
2023/09/06 03:09:06;;;;;;;1.83;1.30;;;;;;;17.97;61.61;100281.88;4474785;32;32260;-77
2023/09/06 03:11:35;;;;;;;3.15;1.30;;;;;;;17.86;61.99;100274.37;4475069;32;34491;-79
2023/09/06 03:14:06;;;;;;;3.12;1.40;;;;;;;17.88;61.76;100282.22;4472626;32;35010;-76
2023/09/06 03:16:39;;;;;;;1.20;0.88;;;;;;;17.89;61.73;100281.28;4470501;32;33972;-78
2023/09/06 03:19:10;;;;;;;1.83;1.00;;;;;;;17.85;61.99;100291.00;4464601;32;34437;-78
2023/09/06 03:21:40;;;;;;;3.37;0.90;;;;;;;17.89;61.89;100278.66;4477851;32;33788;-78
2023/09/06 03:24:12;;;;;;;1.35;0.98;;;;;;;17.76;62.79;100285.19;4470832;32;33566;-78
2023/09/06 03:26:43;;;;;;;5.85;1.20;;;;;;;17.94;61.91;100286.38;4465509;32;34176;-77
2023/09/06 03:29:15;;;;;;;1.15;0.98;;;;;;;17.83;62.39;100287.59;4460483;32;33838;-77
2023/09/06 03:31:46;;;;;;;3.25;1.20;;;;;;;17.71;62.78;100288.00;4471670;32;33910;-78
2023/09/06 03:34:17;;;;;;;1.90;1.10;;;;;;;17.99;61.23;100287.94;4480332;32;35376;-77
2023/09/06 03:36:51;;;;;;;1.50;1.20;;;;;;;17.98;61.09;100290.63;4471746;32;33729;-78
2023/09/06 03:39:21;;;;;;;1.80;1.20;;;;;;;17.91;61.35;100288.19;4467165;32;33408;-78
2023/09/06 03:41:51;;;;;;;2.03;1.17;;;;;;;18.04;61.11;100282.53;4466611;32;34792;-78
2023/09/06 03:44:20;;;;;;;2.03;1.20;;;;;;;17.87;61.58;100289.19;4479891;32;33906;-79
2023/09/06 03:46:49;;;;;;;1.35;1.20;;;;;;;17.86;61.54;100295.38;4470141;32;33884;-78
2023/09/06 03:49:20;;;;;;;1.20;1.10;;;;;;;17.92;61.77;100292.53;4460264;31;34660;-77
2023/09/06 03:51:49;;;;;;;2.45;1.58;;;;;;;17.92;61.78;100297.78;4468780;31;33280;-77
2023/09/06 03:54:18;;;;;;;2.47;1.02;;;;;;;17.80;62.04;100289.44;4474125;32;34051;-77
2023/09/06 03:56:49;;;;;;;1.48;1.02;;;;;;;17.85;62.04;100300.66;4465098;32;32842;-78
2023/09/06 03:59:18;;;;;;;1.50;1.35;;;;;;;17.89;61.81;100300.50;4471662;31;33456;-79
2023/09/06 04:01:47;;;;;;;1.62;1.20;;;;;;;17.78;61.95;100299.97;4468093;32;33526;-77
2023/09/06 04:04:17;;;;;;;3.47;1.42;;;;;;;17.88;61.81;100300.59;4472057;32;33996;-79
2023/09/06 04:06:47;;;;;;;1.17;1.08;;;;;;;17.72;62.15;100300.19;4469119;32;33722;-78
2023/09/06 04:09:18;;;;;;;1.65;0.93;;;;;;;17.74;62.45;100300.16;4473556;32;33914;-78
2023/09/06 04:11:49;;;;;;;1.80;1.37;;;;;;;17.66;62.53;100303.00;4468345;32;33565;-77
2023/09/06 04:14:18;;;;;;;1.42;1.08;;;;;;;17.61;62.52;100297.91;4468530;32;33778;-79
2023/09/06 04:16:48;;;;;;;1.35;1.00;;;;;;;17.51;62.69;100293.00;4470104;32;33002;-79
2023/09/06 04:19:18;;;;;;;1.58;1.12;;;;;;;17.52;62.76;100299.97;4469573;32;34547;-77
2023/09/06 04:21:48;;;;;;;2.12;1.30;;;;;;;17.38;63.12;100297.78;4475948;32;34134;-78
2023/09/06 04:24:20;;;;;;;2.28;1.27;;;;;;;17.63;62.45;100303.97;4470175;32;33799;-78
2023/09/06 04:26:49;;;;;;;2.83;1.20;;;;;;;17.80;61.39;100306.06;4469135;32;33763;-78
2023/09/06 04:29:18;;;;;;;3.40;1.50;;;;;;;17.55;62.14;100303.34;4471497;32;33716;-78
2023/09/06 04:31:47;;;;;;;1.35;1.12;;;;;;;17.51;62.16;100312.22;4465417;32;34455;-77
2023/09/06 04:34:17;;;;;;;1.98;1.37;;;;;;;17.30;63.01;100311.16;4476484;31;33894;-78
2023/09/06 04:36:47;;;;;;;1.77;1.30;;;;;;;17.59;61.93;100318.09;4462218;32;33561;-78
2023/09/06 04:39:17;;;;;;;2.53;1.40;;;;;;;17.52;62.26;100313.97;4465889;32;33220;-77
2023/09/06 04:41:48;;;;;;;0.85;0.75;;;;;;;17.50;62.40;100318.37;4472109;32;35741;-77
2023/09/06 04:44:24;;;;;;;1.25;1.00;;;;;;;17.52;62.34;100320.94;4469891;32;34831;-77
2023/09/06 04:46:54;;;;;;;1.83;1.27;;;;;;;17.61;62.14;100331.16;4462567;32;33173;-78
2023/09/06 04:49:24;;;;;;;2.70;1.25;;;;;;;17.75;61.80;100322.84;4461355;32;33076;-78
2023/09/06 04:51:56;;;;;;;1.80;1.05;;;;;;;17.60;62.19;100324.19;4472602;32;34309;-77
2023/09/06 04:54:25;;;;;;;4.03;1.37;;;;;;;17.69;61.90;100324.75;4462212;32;33668;-78
2023/09/06 04:56:54;;;;;;;1.23;1.00;;;;;;;17.72;62.05;100325.56;4471466;32;33570;-77
2023/09/06 04:59:27;;;;;;;2.85;1.48;;;;;;;17.75;62.38;100323.69;4473881;32;33759;-78
2023/09/06 05:01:56;;;;;;;1.85;0.90;;;;;;;17.88;61.92;100332.09;4472799;32;34822;-78
2023/09/06 05:04:25;;;;;;;1.95;1.00;;;;;;;17.92;62.28;100328.41;4482823;32;33882;-77
2023/09/06 05:06:55;;;;;;;3.05;1.40;;;;;;;17.88;62.50;100337.34;4468755;32;34232;-78
2023/09/06 05:09:24;;;;;;;3.50;1.95;;;;;;;17.95;62.37;100327.47;4478156;32;33811;-79
2023/09/06 05:11:53;;;;;;;2.75;1.70;;;;;;;18.15;61.27;100332.91;4475261;32;33939;-78
2023/09/06 05:14:22;;;;;;;1.67;1.00;;;;;;;18.13;61.60;100339.97;4466634;32;34322;-77
2023/09/06 05:16:51;;;;;;;1.40;1.10;;;;;;;18.18;61.32;100331.94;4464606;32;33040;-79
2023/09/06 05:19:25;;;;;;;1.87;1.10;;;;;;;18.28;60.80;100328.94;4469200;32;33819;-79
2023/09/06 05:21:56;;;;;;;1.52;1.20;;;;;;;18.36;60.91;100333.91;4477723;32;33828;-77
2023/09/06 05:24:26;;;;;;;;;;;;;;;18.43;60.53;100339.81;4467674;32;34556;-78
2023/09/06 05:26:56;;;;;;;1.70;1.20;;;;;;;18.71;59.28;100331.81;4470352;32;34178;-77
2023/09/06 05:29:27;;;;;;;1.42;1.12;;;;;;;18.91;58.91;100328.47;4465842;32;34614;-78
2023/09/06 05:31:56;;;;;;;1.08;0.82;;;;;;;18.89;59.70;100339.03;4467489;32;34745;-78
2023/09/06 05:34:25;;;;;;;1.20;1.10;;;;;;;19.11;59.20;100336.50;4473807;32;33799;-77
2023/09/06 05:36:55;;;;;;;1.20;0.90;;;;;;;19.12;59.41;100338.19;4473092;32;33270;-79
2023/09/06 05:39:24;;;;;;;2.20;1.37;;;;;;;19.25;59.62;100338.56;4468477;32;33611;-77
2023/09/06 05:41:54;;;;;;;1.20;1.00;;;;;;;19.24;60.01;100342.13;4462063;32;33970;-78
2023/09/06 05:44:23;;;;;;;2.43;1.20;;;;;;;19.14;61.23;100343.41;4462975;32;32816;-78
2023/09/06 05:46:52;;;;;;;2.35;1.25;;;;;;;19.58;59.75;100346.91;4467173;32;33266;-77
2023/09/06 05:49:23;;;;;;;2.05;1.15;;;;;;;19.27;60.06;100346.41;4472365;32;33095;-77
2023/09/06 05:51:51;;;;;;;2.08;1.45;;;;;;;19.28;58.38;100346.38;4475553;32;34288;-79
2023/09/06 05:54:22;;;;;;;4.12;1.95;;;;;;;19.21;59.01;100344.00;4474716;32;35146;-78
2023/09/06 05:56:51;;;;;;;1.58;1.35;;;;;;;19.37;58.92;100347.75;4475181;32;35311;-76
2023/09/06 05:59:20;;;;;;;2.20;1.25;;;;;;;19.31;59.22;100342.75;4481200;32;33802;-78
2023/09/06 06:01:49;;;;;;;2.15;1.37;;;;;;;19.37;58.96;100345.13;4475233;32;34577;-77
2023/09/06 06:04:18;;;;;;;2.08;1.27;;;;;;;19.71;58.07;100343.81;4474964;32;34609;-78
2023/09/06 06:06:47;;;;;;;1.92;1.10;;;;;;;19.42;58.95;100350.22;4473389;32;34092;-79
2023/09/06 06:09:16;;;;;;;2.03;1.17;;;;;;;19.51;58.85;100345.44;4479619;32;33614;-77
2023/09/06 06:11:46;;;;;;;3.45;1.73;;;;;;;19.65;58.67;100354.59;4475212;32;34669;-78
2023/09/06 06:14:15;;;;;;;1.75;1.42;;;;;;;19.72;58.18;100349.03;4474942;31;35511;-78
2023/09/06 06:16:43;;;;;;;7.20;1.90;;;;;;;19.91;57.54;100351.78;4476461;32;32996;-78
2023/09/06 06:19:14;;;;;;;;;;;;;;;20.33;56.71;100353.50;4476276;32;33598;-78
2023/09/06 06:21:43;;;;;;;1.87;1.23;;;;;;;20.13;57.64;100359.63;4481430;32;34348;-77
2023/09/06 06:24:13;;;;;;;2.30;1.27;;;;;;;19.96;58.18;100359.50;4475771;32;34085;-78
2023/09/06 06:26:42;;;;;;;1.23;1.13;;;;;;;20.18;57.89;100356.81;4476012;32;33197;-78
2023/09/06 06:29:12;;;;;;;4.03;1.67;;;;;;;20.20;58.55;100363.72;4475940;32;34304;-78
2023/09/06 06:31:41;;;;;;;1.77;1.30;;;;;;;20.17;58.20;100355.94;4480637;32;34742;-77
2023/09/06 06:34:10;;;;;;;2.25;1.60;;;;;;;20.60;56.58;100359.37;4475593;32;34591;-78
2023/09/06 06:36:39;;;;;;;3.70;1.20;;;;;;;20.66;56.56;100358.28;4475851;32;33430;-78
2023/09/06 06:39:10;;;;;;;3.22;1.77;;;;;;;20.47;56.52;100360.84;4475716;32;34429;-78
2023/09/06 06:41:39;;;;;;;2.20;1.00;;;;;;;20.58;55.38;100371.78;4475421;32;33207;-79
2023/09/06 06:44:09;;;;;;;1.83;0.90;;;;;;;21.13;54.18;100372.87;4480894;32;33630;-77
2023/09/06 06:46:40;;;;;;;2.10;1.15;;;;;;;21.13;52.94;100373.72;4459689;32;34075;-79
2023/09/06 06:49:09;;;;;;;2.58;1.30;;;;;;;21.10;53.56;100368.59;4459697;32;34659;-78
2023/09/06 06:51:40;;;;;;;1.73;1.20;;;;;;;21.26;52.94;100372.25;4459905;32;33718;-78
2023/09/06 06:54:14;;;;;;;5.20;1.00;;;;;;;21.58;52.04;100372.53;4463592;32;33635;-78
2023/09/06 06:56:43;;;;;;;1.83;0.93;;;;;;;21.51;50.54;100379.87;4462064;31;33589;-79
2023/09/06 06:59:13;;;;;;;2.35;1.10;;;;;;;21.37;49.61;100378.81;4472917;32;32716;-78
2023/09/06 07:01:44;;;;;;;2.35;1.17;;;;;;;21.69;49.64;100379.94;4472946;32;33831;-78
2023/09/06 07:04:13;;;;;;;2.20;1.42;;;;;;;21.86;48.72;100373.81;4475281;32;33094;-78
2023/09/06 07:06:41;;;;;;;2.30;1.10;;;;;;;21.90;49.34;100380.69;4478335;32;33362;-78
2023/09/06 07:09:10;;;;;;;1.12;0.88;;;;;;;22.34;49.03;100385.56;4475177;32;34177;-78
2023/09/06 07:11:39;;;;;;;2.90;1.42;;;;;;;21.98;48.39;100385.59;4474563;32;33673;-78
2023/09/06 07:14:08;;;;;;;1.85;0.80;;;;;;;22.19;48.38;100384.50;4472613;32;33708;-79
2023/09/06 07:16:37;;;;;;;2.17;0.77;;;;;;;22.37;47.45;100383.63;4480264;32;33876;-79
2023/09/06 07:19:07;;;;;;;2.72;1.05;;;;;;;22.46;47.80;100377.00;4478029;32;34657;-78
2023/09/06 07:21:36;;;;;;;2.42;1.25;;;;;;;22.33;46.42;100373.28;4477146;32;33837;-78
2023/09/06 07:24:05;;;;;;;2.37;0.90;;;;;;;22.71;46.06;100373.06;4477399;31;33557;-77
2023/09/06 07:26:34;;;;;;;0.68;0.50;;;;;;;22.57;46.50;100368.53;4478257;32;34105;-78
2023/09/06 07:29:03;;;;;;;2.03;0.90;;;;;;;22.74;46.20;100372.94;4482601;31;33476;-78
2023/09/06 07:31:32;;;;;;;4.82;1.33;;;;;;;22.62;45.79;100361.19;4475054;32;33499;-78
2023/09/06 07:34:01;;;;;;;1.67;0.98;;;;;;;22.43;45.77;100369.22;4477553;32;34671;-78
2023/09/06 07:36:31;;;;;;;1.50;1.08;;;;;;;22.49;45.86;100360.97;4477174;32;34122;-79
2023/09/06 07:39:00;;;;;;;0.90;0.65;;;;;;;22.76;45.90;100371.91;4482356;32;33870;-78
2023/09/06 07:41:29;;;;;;;1.23;0.82;;;;;;;22.85;46.12;100369.69;4476989;32;33813;-78
2023/09/06 07:43:58;;;;;;;1.67;1.00;;;;;;;22.87;45.86;100373.97;4477105;32;33933;-77
2023/09/06 07:46:29;;;;;;;1.23;0.80;;;;;;;23.04;45.94;100365.16;4477449;32;32979;-77
2023/09/06 07:48:58;;;;;;;1.75;0.80;;;;;;;22.61;46.78;100374.50;4482533;32;33450;-78
2023/09/06 07:51:27;;;;;;;2.12;1.08;;;;;;;23.19;46.05;100369.59;4478933;32;35584;-78
2023/09/06 07:53:58;;;;;;;2.25;0.93;;;;;;;23.18;45.97;100369.69;4477420;32;34455;-79
2023/09/06 07:56:27;;;;;;;1.60;0.88;;;;;;;23.04;45.99;100369.59;4477474;32;33910;-78
2023/09/06 07:58:56;;;;;;;1.17;0.90;;;;;;;23.45;45.64;100369.97;4476687;32;33974;-78
2023/09/06 08:01:25;;;;;;;4.72;1.65;;;;;;;23.54;44.46;100373.91;4479899;32;33218;-78
2023/09/06 08:03:58;;;;;;;1.35;0.80;;;;;;;23.62;45.30;100371.66;4476492;32;34962;-79
2023/09/06 08:06:27;;;;;;;1.30;0.80;;;;;;;23.68;44.93;100371.34;4467779;32;33602;-79
2023/09/06 08:08:58;;;;;;;2.97;1.35;;;;;;;23.82;44.72;100378.50;4468629;32;33546;-79
2023/09/06 08:11:28;;;;;;;1.85;1.17;;;;;;;23.72;44.70;100383.44;4465918;32;34557;-77
2023/09/06 08:13:57;;;;;;;2.72;1.10;;;;;;;23.92;44.39;100378.81;4461086;32;34144;-79
2023/09/06 08:16:26;;;;;;;1.48;0.75;;;;;;;23.81;44.78;100385.59;4461089;32;32966;-78
2023/09/06 08:18:56;;;;;;;1.95;1.12;;;;;;;23.88;44.03;100385.25;4466952;32;33524;-79
2023/09/06 08:21:25;;;;;;;3.47;1.23;;;;;;;24.13;44.16;100388.19;4468624;32;33500;-78
2023/09/06 08:23:54;;;;;;;2.28;1.00;;;;;;;24.22;43.54;100389.44;4465665;32;34437;-78
2023/09/06 08:26:22;;;;;;;8.75;1.52;;;;;;;24.04;44.24;100389.59;4460016;32;32933;-78
2023/09/06 08:28:53;;;;;;;3.37;1.45;;;;;;;24.23;43.89;100385.84;4468234;32;32525;-77
2023/09/06 08:31:22;;;;;;;1.75;0.85;;;;;;;24.34;43.87;100387.88;4463668;32;34204;-79
2023/09/06 08:33:50;;;;;;;2.12;1.02;;;;;;;24.19;43.57;100387.00;4465929;32;33381;-78
2023/09/06 08:36:20;;;;;;;2.80;1.02;;;;;;;24.53;43.67;100395.63;4460465;32;33838;-79
2023/09/06 08:38:49;;;;;;;1.80;0.90;;;;;;;24.20;43.68;100392.19;4459915;32;33987;-78
2023/09/06 08:41:20;;;;;;;1.23;0.75;;;;;;;24.45;43.32;100388.94;4459849;32;33622;-79
2023/09/06 08:43:50;;;;;;;2.25;1.15;;;;;;;24.72;43.40;100388.25;4460504;32;34404;-79
2023/09/06 08:46:26;;;;;;;1.13;0.77;;;;;;;24.64;42.99;100396.66;4471626;32;35035;-79
2023/09/06 08:48:56;;;;;;;1.77;0.85;;;;;;;24.82;42.69;100388.56;4466752;32;34247;-78
2023/09/06 08:51:26;;;;;;;1.00;0.80;;;;;;;24.97;41.84;100390.25;4459924;32;35500;-78
2023/09/06 08:53:57;;;;;;;2.15;0.93;;;;;;;24.81;41.54;100384.16;4460285;32;34076;-79
2023/09/06 08:56:27;;;;;;;1.37;1.00;;;;;;;24.94;40.95;100382.47;4465849;32;32647;-78
2023/09/06 08:58:56;;;;;;;1.95;1.10;;;;;;;24.40;41.73;100384.84;4461111;32;33544;-79
2023/09/06 09:01:26;;;;;;;2.10;1.10;;;;;;;24.64;41.96;100387.84;4460416;32;33562;-79
2023/09/06 09:03:55;;;;;;;2.75;1.33;;;;;;;24.70;41.48;100383.03;4460285;32;34192;-78
2023/09/06 09:06:25;;;;;;;1.08;0.70;;;;;;;24.89;40.99;100384.56;4460225;32;33767;-79
2023/09/06 09:08:53;;;;;;;2.67;1.00;;;;;;;24.75;40.61;100382.75;4467434;32;34656;-79
2023/09/06 09:11:23;;;;;;;1.55;1.08;;;;;;;25.09;40.25;100386.81;4471087;32;33632;-79
2023/09/06 09:13:51;;;;;;;2.47;0.80;;;;;;;25.36;40.63;100380.75;4467366;32;33657;-78
2023/09/06 09:16:22;;;;;;;1.20;0.82;;;;;;;25.29;41.68;100390.06;4468060;32;33364;-79
2023/09/06 09:18:52;;;;;;;2.55;0.77;;;;;;;25.32;41.76;100377.44;4472709;32;33577;-78
2023/09/06 09:21:21;;;;;;;1.95;0.90;;;;;;;25.45;39.34;100385.47;4468108;32;34427;-79
2023/09/06 09:23:55;;;;;;;2.33;0.93;;;;;;;25.72;39.54;100385.50;4462369;32;33912;-79
2023/09/06 09:26:24;;;;;;;2.22;1.48;;;;;;;25.84;39.19;100383.84;4466006;32;33184;-78
2023/09/06 09:28:54;;;;;;;2.95;1.00;;;;;;;25.84;39.81;100383.84;4465132;31;34456;-78
2023/09/06 09:31:22;;;;;;;0.52;0.50;;;;;;;26.19;38.70;100383.31;4479143;32;33631;-79
2023/09/06 09:33:54;;;;;;;1.23;0.77;;;;;;;25.99;38.59;100379.34;4476056;32;33170;-79
2023/09/06 09:36:23;;;;;;;2.72;0.77;;;;;;;26.06;38.99;100379.78;4476459;32;33486;-77
2023/09/06 09:38:52;;;;;;;1.58;0.80;;;;;;;26.21;38.06;100383.22;4476522;32;33351;-77
2023/09/06 09:41:21;;;;;;;1.25;0.77;;;;;;;26.19;36.80;100380.66;4472278;32;35670;-78
2023/09/06 09:44:13;;;;;;;1.83;1.00;;;;;;;26.39;36.39;100374.84;4467187;32;34190;-78
2023/09/06 09:46:44;;;;;;;1.75;0.95;;;;;;;26.16;38.15;100367.56;4471340;32;33298;-78
2023/09/06 09:49:14;;;;;;;;;;;;;;;26.00;38.97;100369.56;4469958;32;33644;-78
2023/09/06 09:51:43;;;;;;;2.03;0.90;;;;;;;26.13;38.67;100365.13;4460914;32;33450;-78
2023/09/06 09:54:13;;;;;;;1.95;1.17;;;;;;;26.24;37.63;100367.03;4471612;32;34235;-77
2023/09/06 09:56:47;;;;;;;0.57;0.52;;;;;;;26.47;36.11;100368.16;4467386;32;35480;-79
2023/09/06 09:59:16;;;;;;;2.17;0.95;;;;;;;26.53;37.06;100370.38;4465914;32;33513;-77
2023/09/06 10:01:45;;;;;;;0.52;0.52;;;;;;;26.57;37.32;100363.94;4465818;32;33683;-78
2023/09/06 10:04:15;;;;;;;1.92;0.75;;;;;;;26.76;36.30;100364.34;4460125;32;33499;-77
2023/09/06 10:06:44;;;;;;;1.05;0.57;;;;;;;26.57;36.76;100363.94;4466108;32;33700;-79
2023/09/06 10:09:16;;;;;;;1.20;0.70;;;;;;;26.80;35.80;100355.19;4462868;32;33476;-77
2023/09/06 10:11:45;;;;;;;1.77;1.05;;;;;;;26.85;35.99;100351.38;4473419;31;33446;-78
2023/09/06 10:14:15;;;;;;;3.30;0.70;;;;;;;26.69;36.35;100352.41;4475914;32;33423;-78
2023/09/06 10:16:45;;;;;;;1.83;0.90;;;;;;;26.46;36.94;100353.13;4479521;32;33936;-78
2023/09/06 10:19:15;;;;;;;2.62;1.23;;;;;;;26.95;35.23;100342.59;4474479;32;33597;-77
2023/09/06 10:21:46;;;;;;;2.95;1.10;;;;;;;26.60;36.34;100340.62;4474847;32;34088;-77
2023/09/06 10:24:18;;;;;;;;;;;;;;;26.95;36.18;100328.44;4475518;32;34206;-78
2023/09/06 10:26:48;;;;;;;1.58;0.82;;;;;;;26.40;36.53;100339.28;4475492;32;33349;-78
2023/09/06 10:29:24;;;;;;;1.58;0.90;;;;;;;26.76;35.71;100342.22;4480055;32;33514;-78
2023/09/06 10:31:53;;;;;;;2.20;1.00;;;;;;;26.68;36.05;100344.56;4476307;32;33716;-78
2023/09/06 10:34:24;;;;;;;2.80;1.25;;;;;;;27.08;35.71;100341.72;4475814;32;33591;-78
2023/09/06 10:36:56;;;;;;;0.82;0.45;;;;;;;27.14;35.47;100339.47;4476071;32;33200;-77
2023/09/06 10:39:28;;;;;;;4.05;1.08;;;;;;;27.30;34.81;100333.91;4480530;32;34046;-77
2023/09/06 10:42:28;;;;;;;1.10;0.88;;;;;;;26.97;35.50;100332.69;4480717;32;33442;-78
2023/09/06 10:45:13;;;;;;;2.03;1.02;;;;;;;27.42;34.80;100337.50;4475802;32;34828;-78
2023/09/06 10:47:42;;;;;;;1.52;0.90;;;;;;;27.45;35.15;100326.62;4476162;32;33794;-78
2023/09/06 10:50:16;;;;;;;2.17;0.70;;;;;;;27.44;34.67;100336.41;4475595;32;33940;-77
2023/09/06 10:52:48;;;;;;;1.62;0.85;;;;;;;27.65;34.11;100325.97;4476763;32;34418;-79
2023/09/06 10:55:20;;;;;;;1.23;0.70;;;;;;;27.60;33.48;100322.81;4482963;32;33729;-78
2023/09/06 10:57:56;;;;;;;2.00;0.75;;;;;;;27.51;34.17;100327.97;4477584;32;33288;-78
2023/09/06 11:00:30;;;;;;;0.98;0.60;;;;;;;27.43;34.29;100323.22;4466457;32;33566;-78
2023/09/06 11:03:17;;;;;;;1.08;0.68;;;;;;;27.50;33.21;100315.59;4475983;32;34038;-77
2023/09/06 11:05:53;;;;;;;1.37;0.60;;;;;;;27.80;32.10;100315.97;4461980;32;34402;-76
2023/09/06 11:08:30;;;;;;;1.77;1.02;;;;;;;27.71;31.43;100313.16;4466627;32;33080;-79
2023/09/06 11:11:03;;;;;;;1.15;0.43;;;;;;;27.62;32.54;100312.06;4466414;32;33133;-79
2023/09/06 11:13:33;;;;;;;0.77;0.45;;;;;;;27.83;32.50;100312.25;4461865;32;34769;-78
2023/09/06 11:16:03;;;;;;;1.40;0.70;;;;;;;27.91;32.75;100315.22;4461877;32;33912;-78
2023/09/06 11:18:36;;;;;;;1.83;0.93;;;;;;;28.00;32.30;100309.16;4461899;32;33691;-78
2023/09/06 11:21:06;;;;;;;1.02;0.55;;;;;;;28.06;32.52;100311.37;4466879;32;34376;-78
2023/09/06 11:23:44;;;;;;;1.17;0.77;;;;;;;28.17;31.51;100305.19;4461886;32;33686;-79
2023/09/06 11:26:13;;;;;;;1.40;0.70;;;;;;;28.12;31.12;100301.19;4462728;32;33822;-79
2023/09/06 11:28:43;;;;;;;2.85;0.88;;;;;;;28.38;31.20;100308.03;4476124;32;33377;-77
2023/09/06 11:31:23;;;;;;;1.10;0.60;;;;;;;28.41;30.95;100302.44;4473593;32;35543;-79
2023/09/06 11:33:57;;;;;;;1.00;0.57;;;;;;;27.98;31.62;100305.78;4466791;32;34437;-78
2023/09/06 11:36:31;;;;;;;2.55;1.08;;;;;;;28.28;30.64;100291.06;4461826;32;34205;-78
2023/09/06 11:39:11;;;;;;;1.45;0.95;;;;;;;28.18;31.99;100295.41;4462935;32;33174;-79
2023/09/06 11:41:41;;;;;;;0.62;0.50;;;;;;;28.39;32.27;100285.72;4461759;32;33829;-78